Time;durP1;ratioP1;P1;durP2;ratioP2;P2;SDS_P1;SDS_P2;PMS_P1;PMS_P2;Temp;Humidity;BMP_temperature;BMP_pressure;BME280_temperature;BME280_humidity;BME280_pressure;Samples;Min_cycle;Max_cycle;Signal;HPM_P1;HPM_P2
2022/02/28 00:02:05;;;;;;;5.13;0.90;;;24.40;99.90;;;;;;5021489;28;20044;-77
2022/02/28 00:04:32;;;;;;;5.85;1.23;;;24.30;99.90;;;;;;5023040;28;20021;-78
2022/02/28 00:07:00;;;;;;;6.05;1.58;;;24.20;99.90;;;;;;5022080;28;20411;-75
2022/02/28 00:09:27;;;;;;;4.38;1.00;;;24.10;99.90;;;;;;5021341;28;20021;-72
2022/02/28 00:11:54;;;;;;;2.75;2.05;;;24.10;99.90;;;;;;5028782;28;20050;-80
2022/02/28 00:14:22;;;;;;;3.75;0.95;;;24.00;99.90;;;;;;5031192;28;20533;-80
2022/02/28 00:16:50;;;;;;;3.45;1.15;;;23.80;99.90;;;;;;5023714;28;21058;-80
2022/02/28 00:19:17;;;;;;;1.70;1.05;;;23.80;99.90;;;;;;5028409;28;20167;-81
2022/02/28 00:21:45;;;;;;;4.35;1.75;;;23.80;99.90;;;;;;5026763;28;20025;-78
2022/02/28 00:24:14;;;;;;;4.40;1.02;;;23.90;99.90;;;;;;5022143;28;20476;-74
2022/02/28 00:26:42;;;;;;;3.47;1.63;;;24.10;99.90;;;;;;5021713;28;20095;-73
2022/02/28 00:29:09;;;;;;;6.97;0.98;;;24.40;99.90;;;;;;5023967;28;20132;-76
2022/02/28 00:31:36;;;;;;;4.57;0.73;;;24.80;99.90;;;;;;5026009;28;20029;-74
2022/02/28 00:34:04;;;;;;;1.50;0.75;;;25.10;99.90;;;;;;5026071;28;20037;-77
2022/02/28 00:36:31;;;;;;;5.95;2.17;;;25.40;99.90;;;;;;5031012;28;20029;-72
2022/02/28 00:38:58;;;;;;;3.00;0.60;;;25.70;99.90;;;;;;5016435;28;20086;-76
2022/02/28 00:41:26;;;;;;;3.38;0.65;;;25.50;99.90;;;;;;5029836;28;20025;-74
2022/02/28 00:43:53;;;;;;;3.83;0.80;;;25.50;99.90;;;;;;5024288;28;20030;-74
2022/02/28 00:46:20;;;;;;;3.88;0.68;;;25.40;99.90;;;;;;5027999;28;20115;-74
2022/02/28 00:48:48;;;;;;;1.70;0.43;;;25.30;99.90;;;;;;5022951;28;20026;-74
2022/02/28 00:51:15;;;;;;;1.92;0.80;;;25.30;99.90;;;;;;5025746;28;20025;-76
2022/02/28 00:53:43;;;;;;;5.53;1.05;;;25.30;99.90;;;;;;5029168;28;20416;-74
2022/02/28 00:56:10;;;;;;;3.85;0.93;;;25.10;99.90;;;;;;5024824;28;20017;-75
2022/02/28 00:58:37;;;;;;;1.20;0.60;;;24.80;99.90;;;;;;5029443;28;20070;-74
2022/02/28 01:01:05;;;;;;;3.13;0.60;;;24.70;99.90;;;;;;5026649;28;20029;-74
2022/02/28 01:03:32;;;;;;;4.38;1.02;;;24.50;99.90;;;;;;5022635;28;20116;-74
2022/02/28 01:06:00;;;;;;;6.35;0.98;;;24.40;99.90;;;;;;5025013;28;20171;-75
2022/02/28 01:08:27;;;;;;;3.15;0.60;;;24.40;99.90;;;;;;5029433;28;20022;-73
2022/02/28 01:10:55;;;;;;;4.57;0.57;;;24.40;99.90;;;;;;5025739;28;20029;-75
2022/02/28 01:13:22;;;;;;;1.83;0.60;;;24.50;99.90;;;;;;5023419;28;20531;-72
2022/02/28 01:15:49;;;;;;;1.90;0.65;;;24.60;99.90;;;;;;5019194;28;20021;-75
2022/02/28 01:18:17;;;;;;;2.05;0.50;;;24.70;99.90;;;;;;5026716;28;20483;-74
2022/02/28 01:20:45;;;;;;;2.72;1.25;;;24.80;99.90;;;;;;5023628;28;20132;-74
2022/02/28 01:23:13;;;;;;;3.60;0.70;;;24.90;99.90;;;;;;5027943;28;20113;-75
2022/02/28 01:25:40;;;;;;;2.65;0.80;;;25.00;99.90;;;;;;5015690;28;20057;-74
2022/02/28 01:28:08;;;;;;;2.55;0.82;;;25.00;99.90;;;;;;5022367;28;20057;-73
2022/02/28 01:30:35;;;;;;;7.43;0.88;;;25.10;99.90;;;;;;5022656;28;20037;-72
2022/02/28 01:33:03;;;;;;;6.22;1.02;;;25.20;99.90;;;;;;5029383;28;20038;-75
2022/02/28 01:35:30;;;;;;;3.25;0.82;;;25.20;99.90;;;;;;5021982;28;22584;-74
2022/02/28 01:37:58;;;;;;;5.45;0.85;;;25.10;99.90;;;;;;5024610;28;20091;-74
2022/02/28 01:40:25;;;;;;;7.25;1.35;;;25.20;99.90;;;;;;5024409;28;20137;-75
2022/02/28 01:42:53;;;;;;;4.05;1.33;;;25.10;99.90;;;;;;5022810;28;20484;-75
2022/02/28 01:45:22;;;;;;;4.40;0.70;;;25.10;99.90;;;;;;5024117;28;20129;-73
2022/02/28 01:47:51;;;;;;;6.57;0.95;;;25.20;99.90;;;;;;5024405;28;20044;-72
2022/02/28 01:50:19;;;;;;;4.47;1.13;;;25.40;99.90;;;;;;5021926;28;20029;-74
2022/02/28 01:52:48;;;;;;;3.55;0.95;;;25.40;99.90;;;;;;5023543;28;20131;-74
2022/02/28 01:55:20;;;;;;;3.88;0.80;;;25.40;99.90;;;;;;5026361;28;20030;-75
2022/02/28 01:57:48;;;;;;;3.33;0.57;;;25.50;99.90;;;;;;5027429;28;20369;-74
2022/02/28 02:00:19;;;;;;;3.97;0.82;;;25.60;99.90;;;;;;5021177;28;20040;-74
2022/02/28 02:02:47;;;;;;;1.90;0.75;;;25.70;99.90;;;;;;5019103;28;20034;-75
2022/02/28 02:05:14;;;;;;;4.50;0.75;;;25.80;99.90;;;;;;5016233;28;20028;-73
2022/02/28 02:07:42;;;;;;;1.55;0.50;;;26.00;99.90;;;;;;5020906;28;20080;-75
2022/02/28 02:10:12;;;;;;;3.85;0.63;;;26.10;99.90;;;;;;5018808;28;20021;-74
2022/02/28 02:12:40;;;;;;;3.70;0.68;;;26.10;99.90;;;;;;5021860;28;20082;-72
2022/02/28 02:15:11;;;;;;;7.60;0.98;;;26.20;99.90;;;;;;5019611;28;20548;-75
2022/02/28 02:17:39;;;;;;;5.97;1.20;;;26.10;99.90;;;;;;5016305;28;20113;-71
2022/02/28 02:20:08;;;;;;;3.08;1.08;;;26.20;99.90;;;;;;5019441;28;20021;-76
2022/02/28 02:22:35;;;;;;;3.90;1.10;;;26.10;99.90;;;;;;5013588;28;20037;-72
2022/02/28 02:25:03;;;;;;;6.55;1.15;;;26.10;99.90;;;;;;5021399;28;20044;-73
2022/02/28 02:27:30;;;;;;;6.05;1.77;;;26.00;99.90;;;;;;5024711;28;20129;-73
2022/02/28 02:29:59;;;;;;;4.93;1.10;;;26.00;99.90;;;;;;5015973;28;20488;-74
2022/02/28 02:32:26;;;;;;;5.00;0.88;;;26.00;99.90;;;;;;5017670;28;20037;-73
2022/02/28 02:34:54;;;;;;;4.97;1.08;;;26.20;99.90;;;;;;5016987;28;20624;-73
2022/02/28 02:37:22;;;;;;;2.95;0.60;;;26.40;99.90;;;;;;5019372;28;20361;-75
2022/02/28 02:39:50;;;;;;;7.88;0.88;;;26.60;99.90;;;;;;5015912;28;20475;-73
2022/02/28 02:42:17;;;;;;;2.60;0.55;;;26.80;99.90;;;;;;5015658;28;20095;-72
2022/02/28 02:44:44;;;;;;;3.30;0.60;;;26.80;99.90;;;;;;5018192;28;20032;-72
2022/02/28 02:47:12;;;;;;;4.18;0.50;;;26.90;99.90;;;;;;5022554;28;20051;-73
2022/02/28 02:49:39;;;;;;;4.38;1.00;;;26.90;99.90;;;;;;5019605;28;20578;-71
2022/02/28 02:52:07;;;;;;;1.40;0.85;;;27.00;99.90;;;;;;5018481;28;20372;-74
2022/02/28 02:54:34;;;;;;;3.28;1.98;;;27.10;99.90;;;;;;5017792;28;20057;-74
2022/02/28 02:57:01;;;;;;;2.40;0.80;;;27.20;99.90;;;;;;5020460;28;20075;-72
2022/02/28 02:59:29;;;;;;;3.60;1.05;;;27.30;99.90;;;;;;5018880;28;20134;-74
2022/02/28 03:01:56;;;;;;;3.60;0.40;;;27.30;99.90;;;;;;5020001;28;21656;-74
2022/02/28 03:04:23;;;;;;;5.35;1.67;;;27.20;99.90;;;;;;5022108;28;20017;-75
2022/02/28 03:06:51;;;;;;;8.50;1.45;;;27.10;99.90;;;;;;5018980;28;20089;-74
2022/02/28 03:09:18;;;;;;;2.72;0.73;;;27.00;99.90;;;;;;5021399;28;20037;-73
2022/02/28 03:11:47;;;;;;;5.38;1.08;;;27.00;99.90;;;;;;5018860;28;20542;-74
2022/02/28 03:14:14;;;;;;;3.78;0.85;;;26.90;99.90;;;;;;5017779;28;20044;-74
2022/02/28 03:16:41;;;;;;;6.38;1.13;;;27.00;99.90;;;;;;5018209;28;20162;-73
2022/02/28 03:19:08;;;;;;;2.60;1.23;;;27.10;99.90;;;;;;5019154;28;20022;-73
2022/02/28 03:21:36;;;;;;;3.00;0.73;;;27.40;99.90;;;;;;5020166;28;20056;-73
2022/02/28 03:24:03;;;;;;;5.75;0.70;;;27.70;99.90;;;;;;5024290;28;20479;-73
2022/02/28 03:26:31;;;;;;;4.43;1.13;;;28.10;99.90;;;;;;5017497;28;20018;-73
2022/02/28 03:28:58;;;;;;;3.83;0.80;;;28.40;99.90;;;;;;5017661;28;20064;-71
2022/02/28 03:31:25;;;;;;;5.82;0.85;;;28.60;99.90;;;;;;5018770;28;20128;-73
2022/02/28 03:33:52;;;;;;;2.83;0.60;;;28.70;99.90;;;;;;5020418;28;20033;-75
2022/02/28 03:36:20;;;;;;;5.80;0.85;;;28.70;99.90;;;;;;5025457;28;20022;-72
2022/02/28 03:38:48;;;;;;;4.63;0.95;;;28.50;99.90;;;;;;5027728;28;20029;-74
2022/02/28 03:41:15;;;;;;;5.03;0.60;;;28.50;99.90;;;;;;5024174;28;20030;-72
2022/02/28 03:43:42;;;;;;;2.75;1.00;;;28.60;99.90;;;;;;5031205;28;20025;-73
2022/02/28 03:46:09;;;;;;;3.17;0.63;;;28.60;99.90;;;;;;5022626;28;20590;-74
2022/02/28 03:48:37;;;;;;;2.65;0.50;;;28.70;99.90;;;;;;5022916;28;20365;-72
2022/02/28 03:51:04;;;;;;;3.90;0.90;;;28.70;99.90;;;;;;5023255;28;20030;-72
2022/02/28 03:53:32;;;;;;;4.45;0.50;;;28.80;99.90;;;;;;5022613;28;20479;-75
2022/02/28 03:56:00;;;;;;;5.50;1.38;;;29.00;99.90;;;;;;5023591;28;20030;-73
2022/02/28 03:58:27;;;;;;;4.32;0.85;;;28.80;99.90;;;;;;5028160;28;20104;-72
2022/02/28 04:00:55;;;;;;;4.20;0.90;;;28.50;99.90;;;;;;5020195;28;20128;-75
2022/02/28 04:03:24;;;;;;;6.38;1.20;;;28.30;99.90;;;;;;5022001;28;20103;-76
2022/02/28 04:05:51;;;;;;;4.25;1.60;;;28.20;99.90;;;;;;5021148;28;20052;-74
2022/02/28 04:08:18;;;;;;;4.85;1.50;;;28.00;99.90;;;;;;5029348;28;20045;-73
2022/02/28 04:10:46;;;;;;;4.10;0.68;;;27.80;99.90;;;;;;5029485;28;20048;-75
2022/02/28 04:13:14;;;;;;;7.90;2.03;;;27.80;99.90;;;;;;5030004;28;20403;-76
2022/02/28 04:15:44;;;;;;;4.30;1.13;;;27.80;99.90;;;;;;5021648;28;20033;-73
2022/02/28 04:18:12;;;;;;;3.88;0.70;;;27.70;99.90;;;;;;5022719;28;20435;-73
2022/02/28 04:20:39;;;;;;;3.55;0.70;;;27.70;99.90;;;;;;5023035;28;20446;-75
2022/02/28 04:23:07;;;;;;;3.83;1.05;;;27.70;99.90;;;;;;5024619;28;21704;-76
2022/02/28 04:25:34;;;;;;;2.28;0.60;;;27.90;99.90;;;;;;5026303;28;20404;-77
2022/02/28 04:28:02;;;;;;;4.22;1.17;;;27.90;99.90;;;;;;5026696;28;20053;-73
2022/02/28 04:30:29;;;;;;;4.90;0.90;;;27.90;99.90;;;;;;5024459;28;20025;-78
2022/02/28 04:32:56;;;;;;;3.70;0.77;;;27.80;99.90;;;;;;5023361;28;20060;-75
2022/02/28 04:35:24;;;;;;;6.40;1.13;;;27.70;99.90;;;;;;5029022;28;20465;-74
2022/02/28 04:37:51;;;;;;;4.85;0.80;;;27.80;99.90;;;;;;5025078;28;20045;-75
2022/02/28 04:40:18;;;;;;;3.22;0.75;;;27.90;99.90;;;;;;5023153;28;20087;-75
2022/02/28 04:42:45;;;;;;;2.20;0.50;;;28.00;99.90;;;;;;5020288;28;20045;-75
2022/02/28 04:45:13;;;;;;;5.30;1.25;;;28.10;99.90;;;;;;5025038;28;20025;-74
2022/02/28 04:47:40;;;;;;;5.80;0.68;;;28.20;99.90;;;;;;5026344;28;20040;-76
2022/02/28 04:50:08;;;;;;;7.72;0.75;;;28.20;99.90;;;;;;5030986;28;20028;-75
2022/02/28 04:52:35;;;;;;;6.97;1.08;;;28.00;99.90;;;;;;5030854;28;20052;-77
2022/02/28 04:55:02;;;;;;;4.75;0.70;;;27.90;99.90;;;;;;5021830;28;20641;-75
2022/02/28 04:57:37;;;;;;;2.15;0.52;;;27.80;99.90;;;;;;5032478;28;20052;-73
2022/02/28 05:00:05;;;;;;;6.72;1.00;;;27.60;99.90;;;;;;5029210;28;20028;-75
2022/02/28 05:02:32;;;;;;;5.32;1.05;;;27.50;99.90;;;;;;5027548;28;20026;-80
2022/02/28 05:05:00;;;;;;;3.58;1.15;;;27.40;99.90;;;;;;5027193;28;20017;-77
2022/02/28 05:07:28;;;;;;;6.57;1.17;;;27.30;99.90;;;;;;5019732;28;20195;-76
2022/02/28 05:09:55;;;;;;;3.20;1.05;;;27.20;99.90;;;;;;5021982;28;20021;-74
2022/02/28 05:12:23;;;;;;;6.35;1.15;;;27.10;99.90;;;;;;5022048;28;20041;-78
2022/02/28 05:14:50;;;;;;;10.00;1.48;;;27.00;99.90;;;;;;5021713;28;20039;-74
2022/02/28 05:17:17;;;;;;;4.65;0.70;;;26.90;99.90;;;;;;5020205;28;20025;-77
2022/02/28 05:19:45;;;;;;;6.68;1.35;;;26.70;99.90;;;;;;5018972;28;20468;-74
2022/02/28 05:22:12;;;;;;;6.22;1.73;;;26.70;99.90;;;;;;5021493;28;20043;-75
2022/02/28 05:24:39;;;;;;;8.40;1.20;;;26.60;99.90;;;;;;5022681;28;20096;-78
2022/02/28 05:27:09;;;;;;;5.55;1.17;;;26.50;99.90;;;;;;5021326;28;20033;-75
2022/02/28 05:29:39;;;;;;;2.97;0.82;;;26.40;99.90;;;;;;5021566;28;20051;-72
2022/02/28 05:32:08;;;;;;;3.47;1.00;;;26.30;99.90;;;;;;5017874;28;20026;-76
2022/02/28 05:34:35;;;;;;;6.28;0.98;;;26.30;99.90;;;;;;5017825;28;20034;-74
2022/02/28 05:37:02;;;;;;;3.70;0.88;;;26.40;99.90;;;;;;5022076;28;20041;-75
2022/02/28 05:39:29;;;;;;;4.57;0.90;;;26.40;99.90;;;;;;5021717;28;20049;-78
2022/02/28 05:41:57;;;;;;;5.13;1.00;;;26.30;99.90;;;;;;5022031;28;20037;-76
2022/02/28 05:44:24;;;;;;;4.75;1.05;;;26.10;99.90;;;;;;5021304;28;20533;-78
2022/02/28 05:46:51;;;;;;;5.22;0.70;;;26.00;99.90;;;;;;5020966;28;20104;-80
2022/02/28 05:49:19;;;;;;;7.05;1.45;;;25.90;99.90;;;;;;5021504;28;20037;-79
2022/02/28 05:51:46;;;;;;;11.65;1.15;;;25.60;99.90;;;;;;5018852;28;20040;-79
2022/02/28 05:54:13;;;;;;;5.57;1.00;;;25.10;99.90;;;;;;5018715;28;20029;-74
2022/02/28 05:56:41;;;;;;;7.43;1.60;;;24.40;99.90;;;;;;5024856;28;20017;-79
2022/02/28 05:59:08;;;;;;;7.18;0.98;;;23.80;99.90;;;;;;5020713;28;20041;-77
2022/02/28 06:01:37;;;;;;;6.32;1.42;;;23.40;99.90;;;;;;5020953;28;20487;-71
2022/02/28 06:04:05;;;;;;;3.38;0.60;;;23.10;99.90;;;;;;5020985;28;20049;-78
2022/02/28 06:06:32;;;;;;;4.43;0.80;;;23.00;99.90;;;;;;5019157;28;20025;-80
2022/02/28 06:09:03;;;;;;;6.70;0.80;;;23.00;99.90;;;;;;5018804;28;20036;-76
2022/02/28 06:11:31;;;;;;;7.53;1.15;;;23.10;99.90;;;;;;5021096;28;20017;-76
2022/02/28 06:13:59;;;;;;;2.58;0.80;;;23.20;99.90;;;;;;5020362;28;20052;-78
2022/02/28 06:16:26;;;;;;;4.25;1.10;;;23.40;99.90;;;;;;5020105;28;20025;-75
2022/02/28 06:18:54;;;;;;;4.30;1.60;;;23.60;99.90;;;;;;5020557;28;20317;-76
2022/02/28 06:21:21;;;;;;;5.97;1.30;;;23.70;99.90;;;;;;5018702;28;20021;-76
2022/02/28 06:23:49;;;;;;;6.20;0.80;;;23.80;99.90;;;;;;5024506;28;20061;-79
2022/02/28 06:26:16;;;;;;;4.95;0.70;;;23.80;99.90;;;;;;5025651;28;20040;-81
2022/02/28 06:28:44;;;;;;;3.78;0.90;;;23.90;99.90;;;;;;5018653;28;20412;-81
2022/02/28 06:31:11;;;;;;;2.75;0.60;;;23.90;99.90;;;;;;5019455;28;20026;-78
2022/02/28 06:33:39;;;;;;;1.45;0.82;;;24.00;99.90;;;;;;5016680;28;20037;-84
2022/02/28 06:36:07;;;;;;;4.20;0.93;;;24.10;99.90;;;;;;5024029;28;20044;-80
2022/02/28 06:38:34;;;;;;;4.18;0.80;;;24.10;99.90;;;;;;5022692;28;20033;-81
2022/02/28 06:41:01;;;;;;;2.17;0.80;;;24.10;99.90;;;;;;5021428;28;20380;-83
2022/02/28 06:43:29;;;;;;;4.97;1.42;;;24.00;99.90;;;;;;5020095;28;20083;-76
2022/02/28 06:45:57;;;;;;;3.22;0.98;;;24.00;99.90;;;;;;5021397;28;20025;-74
2022/02/28 06:48:24;;;;;;;4.95;1.20;;;24.10;99.90;;;;;;5023914;28;20357;-81
2022/02/28 06:50:52;;;;;;;3.90;1.27;;;24.00;99.90;;;;;;5023337;28;20061;-80
2022/02/28 06:53:20;;;;;;;6.18;1.23;;;23.90;99.90;;;;;;5022012;28;20033;-76
2022/02/28 06:55:49;;;;;;;4.45;1.20;;;24.00;99.90;;;;;;5021161;28;20033;-77
2022/02/28 06:58:21;;;;;;;4.20;0.98;;;24.10;99.90;;;;;;5019650;28;20033;-77
2022/02/28 07:00:53;;;;;;;4.65;0.88;;;24.10;99.90;;;;;;5019816;28;20125;-77
2022/02/28 07:03:24;;;;;;;5.28;1.33;;;24.00;99.90;;;;;;5020138;28;20026;-78
2022/02/28 07:05:53;;;;;;;5.50;1.27;;;24.00;99.90;;;;;;5020782;28;20022;-78
2022/02/28 07:08:22;;;;;;;3.78;1.40;;;24.10;99.90;;;;;;5019544;28;20504;-76
2022/02/28 07:10:51;;;;;;;4.40;1.23;;;24.20;99.90;;;;;;5018118;28;20040;-74
2022/02/28 07:13:19;;;;;;;3.10;1.05;;;24.40;99.90;;;;;;5018792;28;20124;-74
2022/02/28 07:15:48;;;;;;;3.25;1.02;;;24.50;99.90;;;;;;5024774;28;20021;-75
2022/02/28 07:18:15;;;;;;;6.07;0.95;;;24.50;99.90;;;;;;5025990;28;20068;-80
2022/02/28 07:20:43;;;;;;;2.92;0.77;;;24.60;99.90;;;;;;5030571;28;20132;-73
2022/02/28 07:23:11;;;;;;;6.53;0.90;;;24.70;99.90;;;;;;5028328;28;20025;-77
2022/02/28 07:25:38;;;;;;;4.47;1.00;;;24.60;99.90;;;;;;5030024;28;20022;-78
2022/02/28 07:28:05;;;;;;;4.60;1.63;;;24.50;99.90;;;;;;5021703;28;20065;-76
2022/02/28 07:30:33;;;;;;;5.85;1.45;;;24.50;99.90;;;;;;5026262;28;20087;-76
2022/02/28 07:33:00;;;;;;;8.45;2.53;;;24.50;99.90;;;;;;5025594;28;20057;-76
2022/02/28 07:35:28;;;;;;;6.13;2.00;;;24.50;99.90;;;;;;5031918;28;20152;-76
2022/02/28 07:37:55;;;;;;;5.68;1.80;;;24.50;99.90;;;;;;5027950;28;20123;-71
2022/02/28 07:40:22;;;;;;;3.53;1.20;;;24.50;99.90;;;;;;5025970;28;20030;-74
2022/02/28 07:42:50;;;;;;;4.63;1.27;;;24.50;99.90;;;;;;5031641;28;20053;-77
2022/02/28 07:45:17;;;;;;;5.40;1.58;;;24.50;99.90;;;;;;5025933;28;20112;-72
2022/02/28 07:47:44;;;;;;;4.22;1.25;;;24.40;99.90;;;;;;5030176;28;20477;-76
2022/02/28 07:50:12;;;;;;;7.55;2.40;;;24.40;99.90;;;;;;5031868;28;20105;-74
2022/02/28 07:52:39;;;;;;;4.90;1.25;;;24.30;99.90;;;;;;5030608;28;20040;-78
2022/02/28 07:55:07;;;;;;;5.32;1.42;;;24.30;99.90;;;;;;5029469;28;20084;-78
2022/02/28 07:57:35;;;;;;;3.60;1.42;;;24.20;99.90;;;;;;5029367;28;20124;-76
2022/02/28 08:00:04;;;;;;;2.85;0.63;;;24.20;99.90;;;;;;5019619;28;20036;-74
2022/02/28 08:02:33;;;;;;;3.88;1.80;;;24.20;99.90;;;;;;5025727;28;20029;-72
2022/02/28 08:05:00;;;;;;;9.15;1.42;;;24.10;99.90;;;;;;5018294;28;20025;-73
2022/02/28 08:07:28;;;;;;;5.53;1.27;;;24.00;99.90;;;;;;5027919;28;20391;-73
2022/02/28 08:09:55;;;;;;;5.28;1.20;;;24.00;99.90;;;;;;5020255;28;20434;-73
2022/02/28 08:12:24;;;;;;;5.22;1.08;;;24.00;99.90;;;;;;5029790;28;20404;-74
2022/02/28 08:14:52;;;;;;;3.50;0.88;;;24.10;99.90;;;;;;5024501;28;20443;-71
2022/02/28 08:17:19;;;;;;;4.32;1.20;;;24.10;99.90;;;;;;5028717;28;20492;-73
2022/02/28 08:19:46;;;;;;;4.05;1.70;;;24.00;99.90;;;;;;5029966;28;20029;-72
2022/02/28 08:22:13;;;;;;;6.85;2.20;;;23.90;99.90;;;;;;5023042;28;20472;-72
2022/02/28 08:24:41;;;;;;;10.60;2.85;;;23.70;99.90;;;;;;5033163;28;20376;-75
2022/02/28 08:27:08;;;;;;;9.60;1.23;;;23.60;99.90;;;;;;5031551;28;20021;-74
2022/02/28 08:29:36;;;;;;;4.25;1.92;;;23.50;99.90;;;;;;5031663;28;20107;-74
2022/02/28 08:32:03;;;;;;;4.82;1.13;;;23.30;99.90;;;;;;5032632;28;20033;-71
2022/02/28 08:34:31;;;;;;;6.68;1.48;;;23.20;99.90;;;;;;5024606;28;20499;-76
2022/02/28 08:36:58;;;;;;;11.15;2.10;;;23.10;99.90;;;;;;5032263;28;20044;-75
2022/02/28 08:39:26;;;;;;;9.45;2.30;;;23.00;99.90;;;;;;5032491;28;20028;-75
2022/02/28 08:41:53;;;;;;;4.43;1.30;;;22.90;99.90;;;;;;5016252;28;20038;-73
2022/02/28 08:44:20;;;;;;;5.55;1.30;;;22.80;99.90;;;;;;5033132;28;20057;-73
2022/02/28 08:46:48;;;;;;;4.85;1.05;;;22.60;99.90;;;;;;5029421;28;20436;-70
2022/02/28 08:49:18;;;;;;;6.68;1.20;;;22.60;99.90;;;;;;5031100;28;20100;-75
2022/02/28 08:51:46;;;;;;;5.45;1.65;;;22.50;99.90;;;;;;5031987;28;20112;-74
2022/02/28 08:54:14;;;;;;;6.40;1.92;;;22.40;99.90;;;;;;5032531;28;20065;-74
2022/02/28 08:56:41;;;;;;;6.75;0.90;;;22.40;99.90;;;;;;5029648;28;20021;-74
2022/02/28 08:59:09;;;;;;;8.45;1.40;;;22.30;99.90;;;;;;5027110;28;20548;-75
2022/02/28 09:01:36;;;;;;;4.72;1.00;;;22.20;99.90;;;;;;5030933;28;20036;-75
2022/02/28 09:04:04;;;;;;;3.92;1.10;;;22.20;99.90;;;;;;5031584;28;20033;-70
2022/02/28 09:06:31;;;;;;;5.38;1.45;;;22.20;99.90;;;;;;5031036;28;20427;-74
2022/02/28 09:08:59;;;;;;;11.32;1.65;;;22.10;99.90;;;;;;5030263;28;20033;-72
2022/02/28 09:11:26;;;;;;;4.07;1.45;;;22.10;99.90;;;;;;5026723;28;20056;-75
2022/02/28 09:13:53;;;;;;;4.82;2.20;;;22.10;99.90;;;;;;5029954;28;20029;-72
2022/02/28 09:16:21;;;;;;;4.68;1.83;;;22.10;99.90;;;;;;5031393;28;20022;-74
2022/02/28 09:18:48;;;;;;;5.78;1.70;;;22.20;99.90;;;;;;5028540;28;20434;-75
2022/02/28 09:21:15;;;;;;;6.47;2.35;;;22.20;99.90;;;;;;5028209;28;20026;-74
2022/02/28 09:23:43;;;;;;;9.57;2.13;;;22.20;99.90;;;;;;5030999;28;20407;-74
2022/02/28 09:26:10;;;;;;;7.03;2.05;;;22.30;99.90;;;;;;5030483;28;20086;-72
2022/02/28 09:28:37;;;;;;;8.00;1.70;;;22.30;99.90;;;;;;5029668;28;20611;-73
2022/02/28 09:31:05;;;;;;;10.02;2.05;;;22.30;99.90;;;;;;5030974;28;20025;-70
2022/02/28 09:33:32;;;;;;;5.40;1.33;;;22.30;99.90;;;;;;5024617;28;20120;-72
2022/02/28 09:36:00;;;;;;;6.60;1.38;;;22.30;99.90;;;;;;5027821;28;20022;-74
2022/02/28 09:38:28;;;;;;;3.83;1.75;;;22.30;99.90;;;;;;5026114;28;20116;-76
2022/02/28 09:40:57;;;;;;;9.95;2.22;;;22.30;99.90;;;;;;5028599;28;20021;-75
2022/02/28 09:43:24;;;;;;;5.90;0.88;;;22.30;99.90;;;;;;5030184;28;20025;-75
2022/02/28 09:45:53;;;;;;;6.22;1.30;;;22.10;99.90;;;;;;5027314;28;20137;-74
2022/02/28 09:48:20;;;;;;;3.35;1.00;;;21.90;99.90;;;;;;5021961;28;20030;-72
2022/02/28 09:50:48;;;;;;;5.25;1.02;;;21.80;99.90;;;;;;5029131;28;20234;-74
2022/02/28 09:53:18;;;;;;;5.65;1.20;;;21.60;99.90;;;;;;5030035;28;20507;-72
2022/02/28 09:55:45;;;;;;;3.65;1.33;;;21.60;99.90;;;;;;5020438;28;20033;-74
2022/02/28 09:58:13;;;;;;;6.97;1.13;;;21.60;99.90;;;;;;5023956;28;20086;-76
2022/02/28 10:00:46;;;;;;;3.08;1.02;;;21.50;99.90;;;;;;5024641;28;20028;-73
2022/02/28 10:03:14;;;;;;;5.57;1.70;;;21.50;99.90;;;;;;5025032;28;20108;-72
2022/02/28 10:05:41;;;;;;;4.10;1.00;;;21.50;99.90;;;;;;5027026;28;20536;-72
2022/02/28 10:08:14;;;;;;;3.22;0.98;;;21.40;99.90;;;;;;5021396;28;20057;-74
2022/02/28 10:10:47;;;;;;;2.75;0.80;;;21.40;99.90;;;;;;5018597;28;20488;-71
2022/02/28 10:13:14;;;;;;;3.08;0.88;;;21.50;99.90;;;;;;5024194;28;20056;-72
2022/02/28 10:15:45;;;;;;;8.95;1.80;;;21.50;99.90;;;;;;5030115;28;20476;-70
2022/02/28 10:18:12;;;;;;;6.22;1.23;;;21.50;99.90;;;;;;5020234;28;20025;-75
2022/02/28 10:20:42;;;;;;;2.75;0.73;;;21.50;99.90;;;;;;5025937;28;20021;-71
2022/02/28 10:23:12;;;;;;;6.28;0.85;;;21.50;99.90;;;;;;5024384;28;20476;-71
2022/02/28 10:25:42;;;;;;;4.25;0.90;;;21.50;99.90;;;;;;5029154;28;20564;-71
2022/02/28 10:28:12;;;;;;;4.90;1.08;;;21.50;99.90;;;;;;5027503;28;20059;-74
2022/02/28 10:30:41;;;;;;;3.08;0.77;;;21.50;99.90;;;;;;5024749;28;20025;-74
2022/02/28 10:33:15;;;;;;;3.47;1.60;;;21.50;99.90;;;;;;5025989;28;20049;-74
2022/02/28 10:36:00;;;;;;;1.58;0.68;;;21.50;99.90;;;;;;5021408;28;20061;-71
2022/02/28 10:38:32;;;;;;;4.65;0.90;;;21.40;99.90;;;;;;5025499;28;20029;-71
2022/02/28 10:41:05;;;;;;;6.80;1.38;;;21.50;99.90;;;;;;5030069;28;20064;-70
2022/02/28 10:43:37;;;;;;;5.75;1.45;;;21.40;99.90;;;;;;5017969;28;20026;-71
2022/02/28 10:46:29;;;;;;;3.95;1.50;;;21.40;99.90;;;;;;5022998;28;20105;-71
2022/02/28 10:49:04;;;;;;;6.80;1.95;;;21.40;99.90;;;;;;5027854;28;20129;-73
2022/02/28 10:51:43;;;;;;;4.88;1.33;;;21.40;99.90;;;;;;5020293;28;20034;-71
2022/02/28 10:54:29;;;;;;;2.95;1.42;;;21.40;99.90;;;;;;5031369;28;20122;-74
2022/02/28 10:56:57;;;;;;;6.75;1.10;;;21.40;99.90;;;;;;5019812;28;20020;-73
2022/02/28 10:59:46;;;;;;;8.50;1.40;;;21.40;99.90;;;;;;5031838;28;20131;-74
2022/02/28 11:02:26;;;;;;;2.95;1.77;;;21.40;99.90;;;;;;5029840;28;20384;-73
2022/02/28 11:05:20;;;;;;;5.03;1.50;;;21.30;99.90;;;;;;5029211;28;20103;-72
2022/02/28 11:07:49;;;;;;;2.83;0.90;;;21.30;99.90;;;;;;5033754;28;20063;-75
2022/02/28 11:10:18;;;;;;;3.85;0.93;;;21.30;99.90;;;;;;5031640;28;20056;-72
2022/02/28 11:12:47;;;;;;;7.75;0.93;;;21.30;99.90;;;;;;5021625;28;20073;-71
2022/02/28 11:15:20;;;;;;;1.98;0.80;;;21.20;99.90;;;;;;5021789;28;20071;-76
2022/02/28 11:17:50;;;;;;;4.70;1.40;;;21.20;99.90;;;;;;5024536;28;20052;-72
2022/02/28 11:20:22;;;;;;;3.95;0.88;;;21.20;99.90;;;;;;5029871;28;20086;-71
2022/02/28 11:22:51;;;;;;;4.18;1.17;;;21.10;99.90;;;;;;5020828;28;20064;-72
2022/02/28 11:25:21;;;;;;;2.03;1.08;;;21.10;99.90;;;;;;5026395;28;20025;-76
2022/02/28 11:27:50;;;;;;;4.60;1.20;;;21.10;99.90;;;;;;5032758;28;20041;-71
2022/02/28 11:30:21;;;;;;;4.57;1.48;;;21.00;99.90;;;;;;5029244;28;20056;-72
2022/02/28 11:32:57;;;;;;;5.93;1.90;;;21.00;99.90;;;;;;5023842;28;20392;-76
2022/02/28 11:35:50;;;;;;;7.18;1.98;;;20.90;99.90;;;;;;5019209;28;20209;-74
2022/02/28 11:38:17;;;;;;;5.53;1.38;;;20.90;99.90;;;;;;5025419;28;20488;-72
2022/02/28 11:40:57;;;;;;;4.75;1.30;;;20.90;99.90;;;;;;5029746;28;20033;-73
2022/02/28 11:43:29;;;;;;;6.20;1.27;;;20.90;99.90;;;;;;5028261;28;20037;-72
2022/02/28 11:46:01;;;;;;;2.35;1.33;;;20.90;99.90;;;;;;5033845;28;20088;-73
2022/02/28 11:48:40;;;;;;;2.75;0.70;;;20.90;99.90;;;;;;5031082;28;20053;-73
2022/02/28 11:51:29;;;;;;;5.65;1.70;;;20.90;99.90;;;;;;5033268;28;20073;-72
2022/02/28 11:54:16;;;;;;;4.00;1.08;;;20.90;99.90;;;;;;5031859;28;20089;-73
2022/02/28 11:56:49;;;;;;;7.03;1.08;;;20.80;99.90;;;;;;5023439;28;20029;-72
2022/02/28 11:59:37;;;;;;;2.63;1.33;;;20.90;99.90;;;;;;5026826;28;20037;-72
2022/02/28 12:02:11;;;;;;;2.92;1.23;;;20.80;99.90;;;;;;5021372;28;20167;-75
2022/02/28 12:04:45;;;;;;;6.47;1.30;;;20.80;99.90;;;;;;5031709;28;20488;-77
2022/02/28 12:07:39;;;;;;;1.75;1.20;;;20.80;99.90;;;;;;5027804;28;20120;-74
2022/02/28 12:10:13;;;;;;;5.95;1.77;;;20.80;99.90;;;;;;5025258;28;20034;-76
2022/02/28 12:12:59;;;;;;;4.97;1.70;;;20.80;99.90;;;;;;5024504;28;20029;-74
2022/02/28 12:15:27;;;;;;;4.93;1.50;;;20.80;99.90;;;;;;5025634;28;20559;-71
2022/02/28 12:17:56;;;;;;;3.38;1.50;;;20.90;99.90;;;;;;5023605;28;20037;-71
2022/02/28 12:20:38;;;;;;;5.88;1.70;;;20.90;99.90;;;;;;5026586;28;20087;-70
2022/02/28 12:23:09;;;;;;;6.93;1.63;;;21.00;99.90;;;;;;5021084;28;20030;-72
2022/02/28 12:25:59;;;;;;;5.20;1.23;;;21.00;99.90;;;;;;5022590;28;20024;-72
2022/02/28 12:28:29;;;;;;;2.92;1.40;;;21.00;99.90;;;;;;5020912;28;20060;-71
2022/02/28 12:31:02;;;;;;;4.50;1.27;;;21.00;99.90;;;;;;5026606;28;20039;-72
2022/02/28 12:33:35;;;;;;;3.42;1.33;;;21.00;99.90;;;;;;5027640;28;20041;-76
2022/02/28 12:36:21;;;;;;;3.58;1.30;;;21.00;99.90;;;;;;5029002;28;20352;-72
2022/02/28 12:38:53;;;;;;;;;;;21.00;99.90;;;;;;5029711;28;20061;-73
2022/02/28 12:41:29;;;;;;;5.38;1.63;;;21.00;99.90;;;;;;5028575;28;20012;-71
2022/02/28 12:43:59;;;;;;;6.03;1.75;;;21.00;99.90;;;;;;5030957;28;20045;-73
2022/02/28 12:46:26;;;;;;;3.88;1.27;;;21.00;99.90;;;;;;5019888;28;20415;-72
2022/02/28 12:48:54;;;;;;;2.33;1.20;;;20.90;99.90;;;;;;5030431;28;20021;-71
2022/02/28 12:51:27;;;;;;;6.00;1.60;;;20.80;99.90;;;;;;5028633;28;20040;-73
2022/02/28 12:54:07;;;;;;;3.53;1.17;;;20.80;99.90;;;;;;5024789;28;20047;-73
2022/02/28 12:56:44;;;;;;;5.63;1.55;;;20.80;99.90;;;;;;5028491;28;20061;-75
2022/02/28 12:59:12;;;;;;;4.20;1.65;;;20.80;99.90;;;;;;5025494;28;20029;-74